x

Cape Elizabeth- 45nm Nw Of Aberdeen, Wa (46041) Wave Buoy

9:50 - Tue 26th Jul 2016 All times are PDT. -7 hours from GMT.

  • Sig Wave height 4.6ft
  • Swell Direction
  • Peak Period 7s
  • Average Period 5s
  • Wind
    13mph, 16mph gusts
  • Sea Temp 57°f
  • Ar Temp 58°f
  • Sea Pressure 1021.3mb
  • Cape Elizabeth- 45nm Nw Of Aberdeen, Wa
  • Cape Elizabeth- 45nm Nw Of Aberdeen, Wa

More Historic Weather Station data

Upgrade to MSW Pro to gain access to the past 30 days of data for over 8000 Wavebouys and Weather Stations around the globe.

Join Pro

Comparision Forecast

View Surf forecast
   
Ter 07/26 9:50 4.5ft 7s 5s 13 16 mph 1021.3mb 57f 58f
8:50 5ft 6s 5s 18 22 mph 1020.9mb 57f 58f
7:50 5ft 7s 5s 18 22 mph 1020.9mb 57f 59f
6:50 5ft 8s 5s 18 25 mph 1021.1mb 57f 58f
5:50 5ft 9s 6s 18 22 mph 1021.3mb 57f 58f
4:50 5ft 9s 6s 16 18 mph 1021.7mb 59f 58f
3:50 5.5ft 10s 6s 16 18 mph 1022.2mb 59f 58f
2:50 5ft 10s 6s 13 16 mph 1022.4mb 59f 60f
1:50 5.5ft 8s 6s 11 13 mph 1022.5mb 59f 60f
12:50 5.5ft 10s 6s 11 13 mph 1022.8mb 58f 59f
11:50 5ft 10s 6s 13 16 mph 1022.8mb 58f 60f
10:50 5.5ft 8s 6s 13 18 mph 1022.6mb 58f 60f
9:50 5ft 10s 6s 16 20 mph 1022.3mb 58f 60f
8:50 5ft 10s 6s 13 16 mph 1022.4mb 58f 60f
7:50 5ft 10s 6s 13 16 mph 1021.8mb 58f 59f
6:50 5ft 7s 6s 16 20 mph 1021.4mb 58f 59f
5:50 5.5ft 10s 6s 16 18 mph 1021.1mb 58f 59f
4:50 5.5ft 11s 6s 13 16 mph 1021.1mb 58f 59f
3:50 5ft 10s 6s 11 13 mph 1021mb 59f 59f
2:50 5.5ft 11s 6s 13 16 mph 1020.9mb 59f 60f
1:50 6ft 10s 6s 13 16 mph 1020.9mb 60f 60f
12:50 5.5ft 10s 6s 11 13 mph 1021mb 60f 60f
Seg 07/25 11:50 6ft 11s 7s 13 16 mph 1020.7mb 60f 60f
10:50 5.5ft 11s 6s 13 16 mph 1020.8mb 60f 60f
9:50 5.5ft 10s 6s 16 20 mph 1020.7mb 60f 60f
8:50 6ft 11s 6s 18 25 mph 1020.1mb 60f 60f
7:50 6ft 11s 6s 20 22 mph 1020mb 60f 60f
6:50 6ft 10s 6s 16 18 mph 1019.9mb 60f 60f
5:50 6ft 11s 6s 18 20 mph 1020mb 60f 60f
4:50 5.5ft 11s 6s 16 20 mph 1020mb 60f 60f
3:50 6ft 9s 7s 13 18 mph 1020.2mb 61f 60f
2:50 6ft 11s 7s 11 13 mph 1020.2mb 61f 60f
1:50 6ft 10s 7s 11 16 mph 1020.1mb 61f 60f
12:50 5ft 10s 6s 13 16 mph 1020.2mb 61f 60f
10:50 4.5ft 7s 6s 13 16 mph 1020.1mb 61f 60f
9:50 4.5ft 8s 6s 13 16 mph 1019.8mb 61f 59f
8:50 4.5ft 8s 6s 11 13 mph 1019.6mb 61f 60f
7:50 4.5ft 8s 5s 13 16 mph 1019.1mb 61f 60f
6:50 4.5ft 7s 6s 11 16 mph 1018.8mb 61f 60f
5:50 4.5ft 7s 5s 11 13 mph 1018.4mb 61f 60f
4:50 4.5ft 8s 5s 16 18 mph 1017.9mb 61f 59f
3:50 4.5ft 7s 5s 13 18 mph 1017.9mb 61f 60f
2:50 4.5ft 8s 5s 13 16 mph 1017.9mb 61f 60f
1:50 4.5ft 8s 5s 16 22 mph 1018mb 61f 60f
12:50 4.5ft 8s 5s 20 25 mph 1017.9mb 61f 60f
Dom 07/24 11:50 4ft 8s 5s 20 25 mph 1017.8mb 60f 60f
10:50 4ft 7s 5s 22 27 mph 1017.8mb 60f 60f
9:50 4ft 8s 4s 16 20 mph 1018mb 60f 60f
8:50 3.5ft 7s 4s 20 22 mph 1017.9mb 60f 60f
7:50 4ft 8s 5s 20 25 mph 1018mb 61f 60f
6:50 4ft 8s 5s 20 22 mph 1018.1mb 61f 61f
5:50 3.5ft 7s 5s 20 22 mph 1018.4mb 62f 61f
4:50 3.5ft 8s 5s 18 20 mph 1019.1mb 62f 62f
3:50 3.5ft 8s 5s 18 20 mph 1019.4mb 62f 61f
2:50 3.5ft 7s 5s 18 20 mph 1019.7mb 62f 61f
1:50 3.5ft 7s 5s 16 20 mph 1020mb 62f 61f
12:50 3ft 8s 5s 16 18 mph 1020.4mb 62f 61f
11:50 3ft 6s 5s 16 18 mph 1020.8mb 62f 61f
10:50 3ft 8s 5s 16 18 mph 1020.9mb 62f 61f
9:50 3ft 7s 5s 13 16 mph 1021.1mb 62f 61f
8:50 3ft 15s 5s 13 16 mph 1021.3mb 62f 60f
7:50 3.5ft 7s 5s 11 16 mph 1021mb 62f 60f
6:50 3.5ft 7s 5s 13 16 mph 1020.9mb 62f 60f
5:50 3.5ft 8s 5s 11 13 mph 1020.8mb 62f 60f
4:50 3.5ft 6s 5s 13 18 mph 1020.7mb 62f 60f
3:50 3.5ft 8s 5s 16 18 mph 1021.1mb 62f 60f
2:50 3ft 8s 5s 16 18 mph 1021.6mb 62f 60f
1:50 3.5ft 8s 5s 16 18 mph 1021.9mb 62f 61f
12:50 3ft 8s 5s 16 18 mph 1022.3mb 62f 61f
Sáb 07/23 11:50 3ft 8s 5s 13 16 mph 1023mb 61f 61f
10:50 3ft 8s 5s 13 16 mph 1023.7mb 61f 61f
9:50 3ft 14s 5s 13 18 mph 1023.6mb 61f 61f
8:50 2.5ft 8s 5s 13 16 mph 1023.7mb 62f 61f
7:50 3ft 8s 5s 13 16 mph 1023.8mb 62f 62f
6:50 2.5ft 8s 5s 13 16 mph 1024.2mb 62f 61f
5:50 3ft 8s 6s 11 13 mph 1024.5mb 62f 61f
4:50 3ft 8s 5s 11 13 mph 1025.2mb 62f 61f
3:50 3ft 8s 6s 13 16 mph 1025.5mb 62f 61f
2:50 3ft 8s 6s 11 16 mph 1025.8mb 63f 61f
1:50 3ft 8s 6s 9 11 mph 1025.8mb 63f 61f
12:50 3ft 14s 6s 9
mph
1025.8mb 62f 60f
11:50 3ft 8s 6s 9
mph
1025.9mb 61f 61f
10:50 3ft 15s 6s 7 9 mph 1026.1mb 61f 60f
9:50 3ft 8s 6s 11 13 mph 1025.8mb 61f 59f
8:50 3ft 9s 6s 7
mph
1025.7mb 61f 60f
7:50 3ft 15s 6s 11 13 mph 1025.4mb 61f 60f
6:50 3.5ft 8s 6s 9 13 mph 1025.2mb 61f 60f
5:50 3.5ft 14s 5s 11 13 mph 1024.8mb 61f 60f